createdAt,value
2022-12-03T00:00:06.176Z,2.79
2022-12-03T00:01:02.039Z,2.81
2022-12-03T00:02:03.026Z,2.83
2022-12-03T00:03:02.789Z,2.86
2022-12-03T00:04:02.719Z,2.90
2022-12-03T00:05:02.569Z,2.92
2022-12-03T00:06:02.867Z,2.96
2022-12-03T00:07:03.105Z,2.99
2022-12-03T00:08:02.783Z,3.02
2022-12-03T00:09:03.086Z,3.03
2022-12-03T00:10:03.325Z,3.04
2022-12-03T00:11:02.891Z,3.05
2022-12-03T00:12:03.106Z,3.08
2022-12-03T00:13:03.270Z,3.10
2022-12-03T00:14:02.678Z,3.10
2022-12-03T00:15:03.227Z,3.08
2022-12-03T00:16:02.934Z,3.09
2022-12-03T00:17:02.919Z,3.12
2022-12-03T00:18:02.503Z,3.13
2022-12-03T00:19:02.898Z,3.12
2022-12-03T00:20:02.931Z,3.11
2022-12-03T00:21:02.647Z,3.14
2022-12-03T00:22:02.931Z,3.12
2022-12-03T00:23:02.552Z,3.12
2022-12-03T00:24:02.916Z,3.11
2022-12-03T00:25:02.578Z,3.10
2022-12-03T00:26:02.982Z,3.11
2022-12-03T00:27:03.280Z,3.09
2022-12-03T00:28:02.925Z,3.11
2022-12-03T00:29:03.259Z,3.04
2022-12-03T00:30:02.944Z,2.96
2022-12-03T00:31:03.403Z,2.93
2022-12-03T00:32:02.663Z,2.93
2022-12-03T00:33:02.646Z,2.93
2022-12-03T00:34:02.054Z,2.94
2022-12-03T00:35:02.478Z,2.87
2022-12-03T00:36:02.168Z,2.81
2022-12-03T00:37:03.128Z,2.82
2022-12-03T00:38:02.854Z,2.73
2022-12-03T00:39:03.060Z,2.67
2022-12-03T00:40:02.740Z,2.64
2022-12-03T00:41:02.760Z,2.59
2022-12-03T00:42:02.712Z,2.54
2022-12-03T00:43:02.401Z,2.49
2022-12-03T00:44:02.693Z,2.48
2022-12-03T00:45:02.335Z,2.42
2022-12-03T00:46:02.596Z,2.38
2022-12-03T00:47:02.939Z,2.37
2022-12-03T00:48:02.534Z,2.29
2022-12-03T00:49:02.482Z,2.26
2022-12-03T00:50:02.605Z,2.27
2022-12-03T00:51:02.917Z,2.31
2022-12-03T00:52:02.904Z,2.34
2022-12-03T00:53:02.372Z,2.37
2022-12-03T00:54:02.414Z,2.33
2022-12-03T00:55:02.789Z,2.33
2022-12-03T00:56:02.386Z,2.33
2022-12-03T00:57:03.269Z,2.38
2022-12-03T00:58:02.793Z,2.43
2022-12-03T00:59:02.834Z,2.46
2022-12-03T01:00:03.224Z,2.49
2022-12-03T01:01:03.004Z,2.49
2022-12-03T01:02:03.102Z,2.53
2022-12-03T01:03:02.758Z,2.53
2022-12-03T01:04:03.195Z,2.56
2022-12-03T01:05:02.973Z,2.52
2022-12-03T01:06:02.737Z,2.49
2022-12-03T01:07:02.053Z,2.47
2022-12-03T01:08:02.406Z,2.47
2022-12-03T01:09:02.380Z,2.53
2022-12-03T01:10:02.096Z,2.57
2022-12-03T01:11:02.506Z,2.63
2022-12-03T01:12:02.199Z,2.65
2022-12-03T01:13:02.491Z,2.67
2022-12-03T01:14:02.192Z,2.71
2022-12-03T01:15:02.577Z,2.67
2022-12-03T01:16:02.818Z,2.72
2022-12-03T01:17:02.358Z,2.62
2022-12-03T01:18:02.901Z,2.56
2022-12-03T01:19:02.803Z,2.48
2022-12-03T01:20:02.293Z,2.40
2022-12-03T01:21:02.455Z,2.36
2022-12-03T01:22:03.333Z,2.36
2022-12-03T01:23:02.841Z,2.42
2022-12-03T01:24:03.254Z,2.47
2022-12-03T01:25:03.018Z,2.45
2022-12-03T01:26:03.210Z,2.43
2022-12-03T01:27:02.806Z,2.42
2022-12-03T01:28:03.292Z,2.46
2022-12-03T01:29:02.854Z,2.48
2022-12-03T01:30:03.193Z,2.57
2022-12-03T01:31:03.207Z,2.52
2022-12-03T01:32:02.079Z,2.50
2022-12-03T01:33:02.436Z,2.52
2022-12-03T01:34:02.110Z,2.53
2022-12-03T01:35:02.536Z,2.46
2022-12-03T01:36:02.574Z,2.46
2022-12-03T01:37:02.588Z,2.51
2022-12-03T01:38:02.827Z,2.54
2022-12-03T01:39:03.135Z,2.56
2022-12-03T01:40:02.600Z,2.60
2022-12-03T01:41:05.932Z,2.66
2022-12-03T01:42:02.258Z,2.60
2022-12-03T01:43:02.582Z,2.64
2022-12-03T01:44:02.337Z,2.71
2022-12-03T01:45:02.622Z,2.70
2022-12-03T01:46:02.340Z,2.65
2022-12-03T01:47:02.838Z,2.54
2022-12-03T01:48:03.107Z,2.49
2022-12-03T01:49:02.563Z,2.43
2022-12-03T01:50:02.958Z,2.40
2022-12-03T01:51:02.526Z,2.35
2022-12-03T01:52:02.838Z,2.29
2022-12-03T01:53:03.215Z,2.28
2022-12-03T01:54:02.997Z,2.26
2022-12-03T01:55:02.804Z,2.28
2022-12-03T01:56:03.294Z,2.34
2022-12-03T01:57:02.495Z,2.38
2022-12-03T01:58:02.351Z,2.36
2022-12-03T01:59:02.714Z,2.36
2022-12-03T02:00:02.379Z,2.36
2022-12-03T02:01:02.198Z,2.34
2022-12-03T02:02:02.657Z,2.40
2022-12-03T02:03:02.451Z,2.41
2022-12-03T02:04:03.111Z,2.44
2022-12-03T02:05:02.621Z,2.50
2022-12-03T02:06:02.586Z,2.54
2022-12-03T02:07:03.000Z,2.59
2022-12-03T02:08:02.783Z,2.62
2022-12-03T02:09:03.147Z,2.65
2022-12-03T02:10:02.897Z,2.69
2022-12-03T02:11:03.350Z,2.77
2022-12-03T02:12:02.608Z,2.82
2022-12-03T02:13:02.273Z,2.81
2022-12-03T02:14:02.366Z,2.79
2022-12-03T02:15:02.799Z,2.77
2022-12-03T02:16:02.370Z,2.68
2022-12-03T02:17:03.019Z,2.70
2022-12-03T02:18:02.645Z,2.69
2022-12-03T02:19:02.455Z,2.73
2022-12-03T02:20:03.081Z,2.63
2022-12-03T02:21:02.540Z,2.58
2022-12-03T02:22:03.139Z,2.61
2022-12-03T02:23:03.049Z,2.65
2022-12-03T02:24:02.743Z,2.67
2022-12-03T02:25:03.147Z,2.68
2022-12-03T02:26:02.558Z,2.71
2022-12-03T02:27:02.797Z,2.61
2022-12-03T02:28:02.720Z,2.59
2022-12-03T02:29:02.601Z,2.57
2022-12-03T02:30:02.917Z,2.56
2022-12-03T02:31:02.865Z,2.54
2022-12-03T02:32:03.459Z,2.51
2022-12-03T02:33:03.071Z,2.47
2022-12-03T02:34:03.093Z,2.46
2022-12-03T02:35:03.267Z,2.43
2022-12-03T02:36:04.136Z,2.42
2022-12-03T02:37:02.499Z,2.39
2022-12-03T02:38:02.579Z,2.36
2022-12-03T02:39:02.194Z,2.38
2022-12-03T02:40:02.295Z,2.42
2022-12-03T02:41:02.626Z,2.46
2022-12-03T02:42:02.220Z,2.47
2022-12-03T02:43:02.696Z,2.48
2022-12-03T02:44:02.288Z,2.47
2022-12-03T02:45:05.405Z,2.51
2022-12-03T02:46:02.814Z,2.50
2022-12-03T02:47:03.045Z,2.49
2022-12-03T02:48:02.934Z,2.55
2022-12-03T02:49:03.073Z,2.62
2022-12-03T02:50:02.709Z,2.65
2022-12-03T02:51:02.770Z,2.64
2022-12-03T02:52:03.137Z,2.65
2022-12-03T02:53:03.283Z,2.66
2022-12-03T02:54:02.992Z,2.71
2022-12-03T02:55:03.449Z,2.77
2022-12-03T02:56:03.393Z,2.85
2022-12-03T02:57:02.204Z,2.91
2022-12-03T02:58:02.630Z,2.95
2022-12-03T02:59:02.329Z,2.89
2022-12-03T03:00:02.359Z,2.92
2022-12-03T03:01:02.819Z,2.95
2022-12-03T03:02:03.193Z,2.95
2022-12-03T03:03:02.938Z,2.98
2022-12-03T03:04:03.100Z,2.90
2022-12-03T03:05:02.609Z,2.88
2022-12-03T03:06:03.077Z,2.81
2022-12-03T03:07:03.556Z,2.81
2022-12-03T03:08:03.403Z,2.79
2022-12-03T03:09:03.282Z,2.78
2022-12-03T03:10:03.528Z,2.80
2022-12-03T03:11:03.365Z,2.75
2022-12-03T03:12:02.814Z,2.81
2022-12-03T03:13:02.657Z,2.80
2022-12-03T03:14:02.504Z,2.82
2022-12-03T03:15:03.086Z,2.81
2022-12-03T03:16:02.503Z,2.77
2022-12-03T03:17:03.023Z,2.71
2022-12-03T03:18:02.570Z,2.67
2022-12-03T03:19:02.591Z,2.64
2022-12-03T03:20:02.995Z,2.62
2022-12-03T03:21:02.759Z,2.60
2022-12-03T03:22:03.197Z,2.61
2022-12-03T03:23:02.776Z,2.62
2022-12-03T03:24:02.952Z,2.57
2022-12-03T03:25:02.801Z,2.55
2022-12-03T03:26:03.105Z,2.43
2022-12-03T03:27:02.473Z,2.32
2022-12-03T03:28:02.104Z,2.28
2022-12-03T03:29:02.363Z,2.29
2022-12-03T03:30:02.281Z,2.28
2022-12-03T03:31:02.022Z,2.24
2022-12-03T03:32:03.027Z,2.28
2022-12-03T03:33:02.976Z,2.34
2022-12-03T03:34:02.563Z,2.41
2022-12-03T03:35:02.874Z,2.38
2022-12-03T03:36:02.474Z,2.33
2022-12-03T03:37:02.622Z,2.31
2022-12-03T03:38:01.976Z,2.33
2022-12-03T03:39:02.202Z,2.40
2022-12-03T03:40:02.300Z,2.48
2022-12-03T03:41:02.050Z,2.43
2022-12-03T03:42:03.183Z,2.33
2022-12-03T03:43:02.604Z,2.33
2022-12-03T03:44:02.590Z,2.36
2022-12-03T03:45:03.051Z,2.32
2022-12-03T03:46:02.762Z,2.30
2022-12-03T03:47:02.204Z,2.33
2022-12-03T03:48:02.611Z,2.36
2022-12-03T03:49:02.276Z,2.41
2022-12-03T03:50:02.299Z,2.37
2022-12-03T03:51:02.704Z,2.36
2022-12-03T03:52:02.374Z,2.37
2022-12-03T03:53:02.777Z,2.41
2022-12-03T03:54:02.488Z,2.49
2022-12-03T03:55:02.941Z,2.46
2022-12-03T03:56:02.931Z,2.43
2022-12-03T03:57:02.969Z,2.47
2022-12-03T03:58:02.492Z,2.46
2022-12-03T03:59:02.845Z,2.48
2022-12-03T04:00:02.355Z,2.50
2022-12-03T04:01:02.878Z,2.46
2022-12-03T04:02:02.930Z,2.50
2022-12-03T04:03:03.403Z,2.44
2022-12-03T04:04:03.529Z,2.36
2022-12-03T04:05:03.256Z,2.31
2022-12-03T04:06:03.170Z,2.20
2022-12-03T04:07:02.863Z,2.15
2022-12-03T04:08:03.549Z,2.13
2022-12-03T04:09:03.123Z,2.13
2022-12-03T04:10:03.445Z,2.15
2022-12-03T04:11:02.924Z,2.14
2022-12-03T04:12:02.526Z,2.10
2022-12-03T04:13:02.848Z,2.08
2022-12-03T04:14:02.612Z,2.06
2022-12-03T04:15:02.278Z,2.06
2022-12-03T04:16:02.608Z,2.01
2022-12-03T04:17:03.375Z,2.01
2022-12-03T04:18:03.294Z,1.97
2022-12-03T04:19:03.035Z,2.00
2022-12-03T04:20:03.287Z,1.96
2022-12-03T04:21:03.015Z,1.92
2022-12-03T04:22:02.508Z,1.91
2022-12-03T04:23:02.974Z,1.88
2022-12-03T04:24:02.370Z,1.85
2022-12-03T04:25:02.804Z,1.83
2022-12-03T04:26:02.455Z,1.86
2022-12-03T04:27:02.873Z,1.83
2022-12-03T04:28:03.250Z,1.80
2022-12-03T04:29:03.183Z,1.79
2022-12-03T04:30:02.937Z,1.77
2022-12-03T04:31:03.090Z,1.76
2022-12-03T04:32:02.477Z,1.74
2022-12-03T04:33:02.730Z,1.76
2022-12-03T04:34:02.598Z,1.80
2022-12-03T04:35:02.866Z,1.82
2022-12-03T04:36:02.591Z,1.82
2022-12-03T04:37:02.967Z,1.83
2022-12-03T04:38:03.315Z,1.85
2022-12-03T04:39:03.175Z,1.87
2022-12-03T04:40:03.226Z,1.93
2022-12-03T04:41:02.807Z,1.97
2022-12-03T04:42:02.305Z,1.99
2022-12-03T04:43:02.691Z,2.04
2022-12-03T04:44:02.190Z,2.03
2022-12-03T04:45:02.469Z,2.03
2022-12-03T04:46:02.218Z,2.02
2022-12-03T04:47:02.531Z,2.03
2022-12-03T04:48:02.972Z,2.10
2022-12-03T04:49:02.340Z,2.16
2022-12-03T04:50:02.683Z,2.18
2022-12-03T04:51:02.411Z,2.25
2022-12-03T04:52:03.016Z,2.29
2022-12-03T04:53:02.782Z,2.29
2022-12-03T04:54:03.029Z,2.25
2022-12-03T04:55:02.559Z,2.27
2022-12-03T04:56:02.856Z,2.29
2022-12-03T04:57:02.320Z,2.34
2022-12-03T04:58:02.225Z,2.36
2022-12-03T04:59:02.292Z,2.41
2022-12-03T05:00:02.712Z,2.46
2022-12-03T05:01:02.709Z,2.41
2022-12-03T05:02:01.853Z,2.38
2022-12-03T05:03:01.584Z,2.43
2022-12-03T05:04:02.065Z,2.46
2022-12-03T05:05:01.526Z,2.51
2022-12-03T05:06:02.152Z,2.55
2022-12-03T05:07:02.184Z,2.59
2022-12-03T05:08:02.225Z,2.62
2022-12-03T05:09:02.081Z,2.66
2022-12-03T05:10:02.419Z,2.63
2022-12-03T05:11:02.177Z,2.55
2022-12-03T05:12:01.876Z,2.48
2022-12-03T05:13:01.659Z,2.41
2022-12-03T05:14:02.035Z,2.40
2022-12-03T05:15:01.805Z,2.35
2022-12-03T05:16:01.561Z,2.22
2022-12-03T05:17:02.489Z,2.17
2022-12-03T05:18:02.227Z,2.07
2022-12-03T05:19:02.528Z,2.03
2022-12-03T05:20:02.244Z,2.08
2022-12-03T05:21:02.110Z,2.11
2022-12-03T05:22:02.457Z,2.16
2022-12-03T05:23:02.518Z,2.19
2022-12-03T05:24:02.601Z,2.23
2022-12-03T05:25:02.269Z,2.29
2022-12-03T05:26:02.640Z,2.34
2022-12-03T05:27:01.820Z,2.28
2022-12-03T05:28:01.917Z,2.33
2022-12-03T05:29:01.633Z,2.34
2022-12-03T05:30:01.585Z,2.38
2022-12-03T05:31:01.652Z,2.41
2022-12-03T05:32:01.999Z,2.41
2022-12-03T05:33:01.773Z,2.44
2022-12-03T05:34:02.062Z,2.43
2022-12-03T05:35:01.830Z,2.48
2022-12-03T05:36:01.590Z,2.50
2022-12-03T05:37:02.683Z,2.52
2022-12-03T05:38:02.344Z,2.48
2022-12-03T05:39:02.768Z,2.45
2022-12-03T05:40:02.784Z,2.42
2022-12-03T05:41:02.173Z,2.44
2022-12-03T05:42:02.102Z,2.32
2022-12-03T05:43:01.864Z,2.22
2022-12-03T05:44:02.161Z,2.14
2022-12-03T05:45:01.604Z,2.08
2022-12-03T05:46:01.930Z,1.99
2022-12-03T05:47:02.468Z,1.95
2022-12-03T05:48:02.088Z,2.01
2022-12-03T05:49:02.159Z,2.07
2022-12-03T05:50:01.942Z,2.13
2022-12-03T05:51:02.408Z,2.17
2022-12-03T05:52:01.844Z,2.19
2022-12-03T05:53:01.492Z,2.23
2022-12-03T05:54:01.245Z,2.28
2022-12-03T05:55:01.600Z,2.34
2022-12-03T05:56:01.563Z,2.41
2022-12-03T05:57:02.009Z,2.47
2022-12-03T05:58:01.445Z,2.49
2022-12-03T05:59:01.872Z,2.46
2022-12-03T06:00:01.640Z,2.48
2022-12-03T06:01:01.856Z,2.47
2022-12-03T06:02:03.024Z,2.52
2022-12-03T06:03:02.945Z,2.56
2022-12-03T06:04:02.969Z,2.59
2022-12-03T06:05:02.685Z,2.63
2022-12-03T06:06:03.051Z,2.66
2022-12-03T06:07:02.491Z,2.67
2022-12-03T06:08:02.069Z,2.66
2022-12-03T06:09:02.350Z,2.65
2022-12-03T06:10:02.038Z,2.65
2022-12-03T06:11:02.445Z,2.64
2022-12-03T06:12:02.736Z,2.63
2022-12-03T06:13:02.344Z,2.60
2022-12-03T06:14:02.191Z,2.57
2022-12-03T06:15:02.657Z,2.57
2022-12-03T06:16:02.414Z,2.57
2022-12-03T06:17:02.875Z,2.58
2022-12-03T06:18:02.574Z,2.58
2022-12-03T06:19:02.909Z,2.60
2022-12-03T06:20:02.828Z,2.67
2022-12-03T06:21:02.532Z,2.68
2022-12-03T06:22:02.933Z,2.70
2022-12-03T06:23:02.964Z,2.73
2022-12-03T06:24:02.475Z,2.78
2022-12-03T06:25:07.266Z,2.81
2022-12-03T06:26:02.804Z,2.83
2022-12-03T06:27:03.414Z,2.88
2022-12-03T06:28:02.961Z,2.89
2022-12-03T06:29:02.772Z,2.89
2022-12-03T06:30:03.235Z,2.91
2022-12-03T06:31:03.198Z,2.90
2022-12-03T06:32:02.073Z,2.90
2022-12-03T06:33:02.311Z,2.89
2022-12-03T06:34:02.102Z,2.86
2022-12-03T06:35:02.147Z,2.87
2022-12-03T06:36:02.567Z,2.85
2022-12-03T06:37:02.999Z,2.84
2022-12-03T06:38:02.406Z,2.83
2022-12-03T06:39:02.460Z,2.83
2022-12-03T06:40:02.931Z,2.83
2022-12-03T06:41:02.662Z,2.78
2022-12-03T06:42:03.048Z,2.75
2022-12-03T06:43:02.608Z,2.75
2022-12-03T06:44:02.494Z,2.75
2022-12-03T06:45:02.904Z,2.72
2022-12-03T06:46:02.740Z,2.67
2022-12-03T06:47:02.733Z,2.68
2022-12-03T06:48:02.756Z,2.67
2022-12-03T06:49:03.178Z,2.69
2022-12-03T06:50:02.920Z,2.70
2022-12-03T06:51:02.720Z,2.72
2022-12-03T06:52:02.759Z,2.73
2022-12-03T06:53:02.233Z,2.76
2022-12-03T06:54:02.155Z,2.80
2022-12-03T06:55:02.198Z,2.79
2022-12-03T06:56:02.554Z,2.79
2022-12-03T06:57:02.931Z,2.81
2022-12-03T06:58:02.934Z,2.82
2022-12-03T06:59:02.687Z,2.83
2022-12-03T07:00:02.844Z,2.85
2022-12-03T07:01:02.751Z,2.88
2022-12-03T07:02:02.364Z,2.90
2022-12-03T07:03:02.250Z,2.92
2022-12-03T07:04:02.323Z,2.93
2022-12-03T07:05:02.533Z,2.89
2022-12-03T07:06:02.382Z,2.90
2022-12-03T07:07:01.980Z,2.91
2022-12-03T07:08:01.921Z,2.90
2022-12-03T07:09:02.447Z,2.90
2022-12-03T07:10:02.009Z,2.90
2022-12-03T07:11:01.963Z,2.90
2022-12-03T07:12:02.533Z,2.89
2022-12-03T07:13:02.885Z,2.90
2022-12-03T07:14:05.367Z,2.89
2022-12-03T07:15:02.488Z,2.91
2022-12-03T07:16:02.453Z,2.92
2022-12-03T07:17:02.125Z,2.91
2022-12-03T07:18:01.958Z,2.91
2022-12-03T07:19:02.671Z,2.88
2022-12-03T07:20:02.313Z,2.88
2022-12-03T07:21:02.144Z,2.84
2022-12-03T07:22:02.418Z,2.85
2022-12-03T07:23:02.949Z,2.85
2022-12-03T07:24:02.685Z,2.88
2022-12-03T07:25:02.567Z,2.88
2022-12-03T07:26:02.435Z,2.87
2022-12-03T07:27:01.963Z,2.86
2022-12-03T07:28:01.991Z,2.85
2022-12-03T07:29:01.752Z,2.85
2022-12-03T07:30:02.192Z,2.85
2022-12-03T07:31:02.117Z,2.85
2022-12-03T07:32:02.614Z,2.86
2022-12-03T07:33:02.448Z,2.83
2022-12-03T07:34:02.890Z,2.86
2022-12-03T07:35:02.773Z,2.88
2022-12-03T07:36:02.615Z,2.91
2022-12-03T07:37:02.304Z,2.93
2022-12-03T07:38:02.118Z,2.93
2022-12-03T07:39:02.609Z,2.93
2022-12-03T07:40:02.132Z,2.93
2022-12-03T07:41:01.947Z,2.94
2022-12-03T07:42:02.527Z,2.94
2022-12-03T07:43:02.352Z,2.95
2022-12-03T07:44:02.188Z,2.93
2022-12-03T07:45:02.271Z,2.91
2022-12-03T07:46:02.842Z,2.90
2022-12-03T07:47:02.679Z,2.89
2022-12-03T07:48:02.488Z,2.88
2022-12-03T07:49:02.305Z,2.90
2022-12-03T07:50:02.838Z,2.92
2022-12-03T07:51:02.812Z,2.95
2022-12-03T07:52:02.641Z,2.98
2022-12-03T07:53:02.451Z,3.01
2022-12-03T07:54:02.492Z,3.01
2022-12-03T07:55:02.343Z,3.04
2022-12-03T07:56:02.596Z,3.05
2022-12-03T07:57:02.179Z,3.05
2022-12-03T07:58:02.174Z,3.07
2022-12-03T07:59:02.013Z,3.06
2022-12-03T08:00:01.813Z,3.04
2022-12-03T08:01:02.480Z,3.05
2022-12-03T08:02:02.806Z,3.05
2022-12-03T08:03:02.703Z,3.08
2022-12-03T08:04:02.262Z,3.12
2022-12-03T08:05:02.777Z,3.14
2022-12-03T08:06:02.484Z,3.16
2022-12-03T08:07:01.985Z,3.18
2022-12-03T08:08:01.912Z,3.20
2022-12-03T08:09:01.669Z,3.20
2022-12-03T08:10:01.570Z,3.21
2022-12-03T08:11:02.021Z,3.23
2022-12-03T08:12:02.233Z,3.23
2022-12-03T08:13:02.030Z,3.25
2022-12-03T08:14:01.831Z,3.25
2022-12-03T08:15:01.788Z,3.10
2022-12-03T08:16:02.499Z,3.00
2022-12-03T08:17:02.727Z,3.02
2022-12-03T08:18:03.007Z,2.94
2022-12-03T08:19:02.522Z,2.94
2022-12-03T08:20:02.236Z,2.94
2022-12-03T08:21:02.824Z,2.89
2022-12-03T08:22:02.131Z,2.93
2022-12-03T08:23:01.894Z,2.92
2022-12-03T08:24:01.991Z,2.91
2022-12-03T08:25:01.901Z,2.89
2022-12-03T08:26:01.670Z,2.90
2022-12-03T08:27:02.252Z,2.85
2022-12-03T08:28:02.163Z,2.81
2022-12-03T08:29:01.987Z,2.76
2022-12-03T08:30:01.739Z,2.71
2022-12-03T08:31:02.239Z,2.68
2022-12-03T08:32:02.366Z,2.56
2022-12-03T08:33:02.091Z,2.54
2022-12-03T08:34:02.135Z,2.58
2022-12-03T08:35:01.882Z,2.64
2022-12-03T08:36:02.192Z,2.69
2022-12-03T08:37:02.768Z,2.72
2022-12-03T08:38:02.768Z,2.71
2022-12-03T08:39:02.620Z,2.77
2022-12-03T08:40:02.651Z,2.75
2022-12-03T08:41:02.530Z,2.71
2022-12-03T08:42:02.155Z,2.76
2022-12-03T08:43:01.757Z,2.80
2022-12-03T08:44:01.779Z,2.78
2022-12-03T08:45:01.704Z,2.77
2022-12-03T08:46:01.740Z,2.80
2022-12-03T08:47:02.000Z,2.80
2022-12-03T08:48:01.901Z,2.76
2022-12-03T08:49:02.422Z,2.77
2022-12-03T08:50:02.416Z,2.76
2022-12-03T08:51:02.061Z,2.82
2022-12-03T08:52:02.077Z,2.87
2022-12-03T08:53:01.965Z,2.86
2022-12-03T08:54:02.510Z,2.84
2022-12-03T08:55:01.561Z,2.77
2022-12-03T08:56:02.006Z,2.83
2022-12-03T08:57:02.440Z,2.81
2022-12-03T08:58:02.203Z,2.84
2022-12-03T08:59:02.081Z,2.89
2022-12-03T09:00:01.943Z,2.94
2022-12-03T09:01:01.943Z,3.00
2022-12-03T09:02:02.651Z,3.06
2022-12-03T09:03:02.198Z,3.09
2022-12-03T09:04:02.071Z,3.14
2022-12-03T09:05:02.430Z,3.18
2022-12-03T09:06:02.250Z,3.22
2022-12-03T09:07:02.750Z,3.22
2022-12-03T09:08:02.426Z,3.16
2022-12-03T09:09:06.566Z,3.10
2022-12-03T09:10:02.176Z,3.09
2022-12-03T09:11:02.647Z,2.97
2022-12-03T09:12:01.812Z,2.94
2022-12-03T09:13:02.117Z,2.97
2022-12-03T09:14:01.777Z,2.92
2022-12-03T09:15:02.264Z,2.93
2022-12-03T09:16:02.378Z,2.93
2022-12-03T09:17:01.943Z,2.93
2022-12-03T09:18:02.203Z,2.88
2022-12-03T09:19:01.990Z,2.89
2022-12-03T09:20:02.419Z,2.86
2022-12-03T09:21:02.484Z,2.80
2022-12-03T09:22:01.921Z,2.74
2022-12-03T09:23:02.352Z,2.70
2022-12-03T09:24:02.048Z,2.65
2022-12-03T09:25:02.538Z,2.64
2022-12-03T09:26:02.413Z,2.59
2022-12-03T09:27:02.303Z,2.53
2022-12-03T09:28:02.866Z,2.50
2022-12-03T09:29:05.317Z,2.50
2022-12-03T09:30:02.446Z,2.54
2022-12-03T09:31:02.891Z,2.51
2022-12-03T09:32:03.097Z,2.52
2022-12-03T09:33:02.487Z,2.53
2022-12-03T09:34:02.717Z,2.51
2022-12-03T09:35:02.803Z,2.48
2022-12-03T09:36:02.781Z,2.43
2022-12-03T09:37:01.992Z,2.43
2022-12-03T09:38:02.460Z,2.48
2022-12-03T09:39:01.990Z,2.46
2022-12-03T09:40:02.075Z,2.45
2022-12-03T09:41:02.542Z,2.44
2022-12-03T09:42:02.063Z,2.41
2022-12-03T09:43:01.991Z,2.40
2022-12-03T09:44:04.322Z,2.39
2022-12-03T09:45:02.211Z,2.40
2022-12-03T09:46:02.151Z,2.36
2022-12-03T09:47:02.085Z,2.37
2022-12-03T09:48:02.603Z,2.39
2022-12-03T09:49:02.305Z,2.38
2022-12-03T09:50:02.113Z,2.38
2022-12-03T09:51:02.276Z,2.35
2022-12-03T09:52:02.120Z,2.31
2022-12-03T09:53:02.623Z,2.28
2022-12-03T09:54:02.364Z,2.26
2022-12-03T09:55:02.591Z,2.23
2022-12-03T09:56:02.394Z,2.24
2022-12-03T09:57:02.097Z,2.25
2022-12-03T09:58:02.633Z,2.26
2022-12-03T09:59:02.333Z,2.29
2022-12-03T10:00:02.383Z,2.31
2022-12-03T10:01:02.389Z,2.30
2022-12-03T10:02:02.354Z,2.26
2022-12-03T10:03:02.661Z,2.24
2022-12-03T10:04:02.718Z,2.30
2022-12-03T10:05:02.684Z,2.32
2022-12-03T10:06:02.396Z,2.34
2022-12-03T10:07:02.269Z,2.36
2022-12-03T10:08:02.741Z,2.41
2022-12-03T10:09:02.404Z,2.47
2022-12-03T10:10:02.187Z,2.53
2022-12-03T10:11:02.746Z,2.56
2022-12-03T10:12:02.534Z,2.62
2022-12-03T10:13:03.148Z,2.63
2022-12-03T10:14:02.727Z,2.68
2022-12-03T10:15:03.133Z,2.67
2022-12-03T10:16:02.492Z,2.62
2022-12-03T10:17:02.923Z,2.62
2022-12-03T10:18:03.355Z,2.59
2022-12-03T10:19:03.135Z,2.61
2022-12-03T10:20:03.292Z,2.60
2022-12-03T10:21:03.138Z,2.61
2022-12-03T10:22:02.567Z,2.62
2022-12-03T10:23:02.646Z,2.66
2022-12-03T10:24:02.822Z,2.67
2022-12-03T10:25:02.549Z,2.66
2022-12-03T10:26:03.079Z,2.65
2022-12-03T10:27:02.917Z,2.63
2022-12-03T10:28:02.957Z,2.61
2022-12-03T10:29:02.872Z,2.68
2022-12-03T10:30:02.838Z,2.73
2022-12-03T10:31:02.682Z,2.78
2022-12-03T10:32:02.566Z,2.84
2022-12-03T10:33:03.035Z,2.87
2022-12-03T10:34:02.718Z,2.95
2022-12-03T10:35:02.676Z,2.94
2022-12-03T10:36:02.672Z,2.94
2022-12-03T10:37:02.565Z,2.96
2022-12-03T10:38:02.468Z,2.90
2022-12-03T10:39:02.557Z,2.86
2022-12-03T10:40:02.997Z,2.81
2022-12-03T10:41:02.412Z,2.81
2022-12-03T10:42:02.876Z,2.84
2022-12-03T10:43:02.853Z,2.90
2022-12-03T10:44:02.949Z,2.91
2022-12-03T10:45:02.642Z,2.98
2022-12-03T10:46:04.440Z,2.94
2022-12-03T10:47:02.580Z,2.92
2022-12-03T10:48:02.539Z,2.96
2022-12-03T10:49:02.500Z,2.98
2022-12-03T10:50:02.264Z,2.96
2022-12-03T10:51:02.371Z,2.98
2022-12-03T10:52:02.973Z,2.92
2022-12-03T10:53:03.149Z,2.92
2022-12-03T10:54:02.852Z,2.92
2022-12-03T10:55:03.019Z,2.90
2022-12-03T10:56:02.916Z,2.93
2022-12-03T10:57:02.503Z,2.91
2022-12-03T10:58:02.282Z,2.93
2022-12-03T10:59:02.541Z,2.93
2022-12-03T11:00:02.592Z,2.95
2022-12-03T11:01:02.895Z,2.97
2022-12-03T11:02:02.941Z,2.99
2022-12-03T11:03:03.032Z,3.03
2022-12-03T11:04:03.003Z,3.08
2022-12-03T11:05:02.930Z,3.07
2022-12-03T11:06:02.779Z,3.06
2022-12-03T11:07:03.333Z,3.14
2022-12-03T11:08:03.341Z,3.14
2022-12-03T11:09:08.495Z,3.08
2022-12-03T11:10:03.327Z,3.08
2022-12-03T11:11:03.501Z,3.04
2022-12-03T11:12:03.325Z,3.03
2022-12-03T11:13:03.114Z,3.04
2022-12-03T11:14:03.300Z,3.02
2022-12-03T11:15:03.152Z,3.01
2022-12-03T11:16:03.377Z,3.02
2022-12-03T11:17:03.468Z,3.02
2022-12-03T11:18:03.884Z,3.00
2022-12-03T11:19:03.902Z,3.02
2022-12-03T11:20:03.474Z,2.97
2022-12-03T11:21:03.778Z,2.91
2022-12-03T11:22:03.119Z,2.86
2022-12-03T11:23:02.894Z,2.80
2022-12-03T11:24:02.801Z,2.76
2022-12-03T11:25:03.487Z,2.75
2022-12-03T11:26:03.180Z,2.70
2022-12-03T11:27:03.409Z,2.69
2022-12-03T11:28:03.240Z,2.73
2022-12-03T11:29:03.364Z,2.75
2022-12-03T11:30:03.691Z,2.73
2022-12-03T11:31:03.681Z,2.72
2022-12-03T11:32:02.848Z,2.73
2022-12-03T11:33:03.051Z,2.74
2022-12-03T11:34:03.027Z,2.82
2022-12-03T11:35:03.093Z,2.87
2022-12-03T11:36:02.756Z,2.87
2022-12-03T11:37:02.989Z,2.91
2022-12-03T11:38:02.653Z,2.95
2022-12-03T11:39:03.274Z,2.98
2022-12-03T11:40:02.760Z,2.96
2022-12-03T11:41:02.736Z,2.94
2022-12-03T11:42:02.797Z,2.90
2022-12-03T11:43:02.122Z,2.91
2022-12-03T11:44:02.684Z,2.97
2022-12-03T11:45:02.253Z,3.01
2022-12-03T11:46:04.443Z,3.05
2022-12-03T11:47:03.090Z,3.09
2022-12-03T11:48:03.291Z,3.08
2022-12-03T11:49:02.740Z,3.08
2022-12-03T11:50:02.704Z,3.13
2022-12-03T11:51:02.969Z,3.21
2022-12-03T11:52:02.678Z,3.16
2022-12-03T11:53:02.524Z,3.18
2022-12-03T11:54:02.441Z,3.13
2022-12-03T11:55:02.772Z,3.08
2022-12-03T11:56:04.611Z,3.04
2022-12-03T11:57:03.125Z,3.04
2022-12-03T11:58:03.236Z,3.06
2022-12-03T11:59:02.959Z,3.04
2022-12-03T12:00:03.282Z,3.07
2022-12-03T12:01:03.239Z,3.08
2022-12-03T12:02:02.720Z,3.15
2022-12-03T12:03:02.615Z,3.24
2022-12-03T12:04:02.821Z,3.24
2022-12-03T12:05:02.442Z,3.34
2022-12-03T12:06:02.283Z,3.29
2022-12-03T12:07:03.220Z,3.32
2022-12-03T12:08:03.082Z,3.31
2022-12-03T12:09:03.004Z,3.28
2022-12-03T12:10:02.884Z,3.25
2022-12-03T12:11:02.703Z,3.29
2022-12-03T12:12:02.766Z,3.30
2022-12-03T12:13:02.483Z,3.31
2022-12-03T12:14:02.238Z,3.27
2022-12-03T12:15:02.814Z,3.24
2022-12-03T12:16:02.576Z,3.19
2022-12-03T12:17:03.079Z,3.23
2022-12-03T12:18:02.977Z,3.15
2022-12-03T12:19:02.666Z,3.15
2022-12-03T12:20:03.132Z,3.14
2022-12-03T12:21:02.794Z,3.15
2022-12-03T12:22:03.324Z,3.11
2022-12-03T12:23:03.320Z,3.10
2022-12-03T12:24:03.152Z,3.08
2022-12-03T12:25:03.226Z,3.07
2022-12-03T12:26:03.254Z,3.00
2022-12-03T12:27:02.777Z,2.97
2022-12-03T12:28:02.684Z,2.98
2022-12-03T12:29:02.258Z,2.95
2022-12-03T12:30:02.698Z,2.94
2022-12-03T12:31:02.759Z,2.93
2022-12-03T12:32:03.233Z,2.92
2022-12-03T12:33:02.751Z,2.91
2022-12-03T12:34:02.487Z,2.93
2022-12-03T12:35:03.073Z,2.89
2022-12-03T12:36:02.814Z,2.90
2022-12-03T12:37:03.350Z,2.91
2022-12-03T12:38:02.895Z,2.91
2022-12-03T12:39:02.911Z,2.94
2022-12-03T12:40:02.940Z,2.97
2022-12-03T12:41:03.313Z,2.99
2022-12-03T12:42:02.034Z,3.02
2022-12-03T12:43:08.463Z,2.98
2022-12-03T12:44:02.034Z,3.04
2022-12-03T12:45:02.221Z,3.05
2022-12-03T12:46:18.765Z,3.00
2022-12-03T12:47:02.400Z,2.95
2022-12-03T12:48:02.722Z,2.93
2022-12-03T12:49:02.578Z,2.88
2022-12-03T12:50:02.738Z,2.88
2022-12-03T12:51:02.983Z,2.86
2022-12-03T12:52:02.608Z,2.86
2022-12-03T12:53:02.701Z,2.91
2022-12-03T12:54:02.796Z,2.89
2022-12-03T12:55:05.102Z,2.86
2022-12-03T12:56:02.673Z,2.86
2022-12-03T12:57:02.964Z,2.86
2022-12-03T12:58:02.130Z,2.81
2022-12-03T12:59:02.482Z,2.81
2022-12-03T13:00:02.123Z,2.78
2022-12-03T13:01:02.363Z,2.79
2022-12-03T13:02:08.512Z,2.81
2022-12-03T13:03:02.779Z,2.79
2022-12-03T13:04:02.767Z,2.77
2022-12-03T13:05:02.965Z,2.82
2022-12-03T13:06:02.736Z,2.86
2022-12-03T13:07:02.872Z,2.82
2022-12-03T13:08:07.246Z,2.83
2022-12-03T13:09:02.637Z,2.86
2022-12-03T13:10:02.305Z,2.85
2022-12-03T13:11:02.367Z,2.87
2022-12-03T13:12:02.671Z,2.84
2022-12-03T13:13:02.503Z,2.79
2022-12-03T13:14:02.092Z,2.79
2022-12-03T13:15:02.360Z,2.81
2022-12-03T13:16:02.568Z,2.83
2022-12-03T13:17:02.498Z,2.86
2022-12-03T13:18:02.687Z,2.85